Weather at New Model Farm Airstrip

Public forecast

Using degrees Celsius for public forecast. Weather courtesy of forecast.io.

Closest aviation weather report (METAR) to New Model Farm Airstrip

Closest report is RAF Northolt, 7.7 nm (14.3 km) SSE. Retrieved 2021/06/12 11:20 UTC (5 minutes ago):

EGWU 121120Z 33006KT 9999 SCT036 21/12 Q1023 NOSIG RMK BLU BLU

Closest aviation forecast (TAF) to New Model Farm Airstrip

Closest forecast is RAF Northolt, 7.7 nm (14.3 km) SSE. Retrieved 2021/06/12 09:45 UTC (2 hours ago):

TAF EGWU 120732Z 1209/1303 33006KT 9999 SCT030